PWSweather.com
Personal Weather Stations
Station Observations
133525
French Quarters West Seneca , West Seneca, NY 14224

French Quarters West Seneca West Seneca, NY 14224

Lat: 42.850058, Lon: -78.799754

Elevation: 603

Station Type: Davis Vantage Vue pro2

http://westsenecaweather.com/

Latest ConditionsUpdated 6:50:01 PM EST Sunday, Nov 18, 2018
Currently Today's Max Today's Min Today's Average
Temperature 34.1°F1.2°C 34.4°F1.3°C 31.1°F-0.5°C 32.7°F0.4°C
Dew Point 32.8°F0.4°C 33.1°F0.6°C 23.2°F-4.9°C 27.9°F-2.3°C
Winds Calm Calm 3.5 mph -5.6 kmh - - 0.9 mph 1.4 kmh
Wind Gusts -- 5.8 mph9.3 kmh - -
Humidity 95% 95% 69% 83%
Pressure 30.17 in1021.7 mb 30.34 in1027.4 mb 30.16 in1021.3 mb -
Precipitation - 0.05 in1.3 mm - -
Hour Temp Dew Point Humidity Winds Wind Gusts Pressure Precip Precip Rate Daily Precip Total
06:50 PM 34.1°F1.2°C 32.8°F0.4°C 95% Calm Calm -- 30.17 in1021.7 mb - 0.00 in0.0 mm 0.05 in1.3 mm
06:45 PM 34.1°F1.2°C 32.8°F0.4°C 95% Calm Calm 2.3 mph3.7 kmh 30.16 in1021.3 mb - 0.00 in0.0 mm 0.05 in1.3 mm
06:40 PM 34.2°F1.2°C 32.9°F0.5°C 95% 1.2 mph SSE1.9 kmh SSE 3.5 mph5.6 kmh 30.16 in1021.3 mb - 0.00 in0.0 mm 0.05 in1.3 mm
06:35 PM 34.2°F1.2°C 32.9°F0.5°C 95% 1.2 mph SSE1.9 kmh SSE 2.3 mph3.7 kmh 30.16 in1021.3 mb - 0.00 in0.0 mm 0.05 in1.3 mm
06:30 PM 34.2°F1.2°C 32.9°F0.5°C 95% Calm Calm -- 30.17 in1021.7 mb - 0.00 in0.0 mm 0.05 in1.3 mm
06:25 PM 34.1°F1.2°C 32.8°F0.4°C 95% Calm Calm -- 30.17 in1021.7 mb - 0.00 in0.0 mm 0.05 in1.3 mm
06:20 PM 34.1°F1.2°C 32.8°F0.4°C 95% Calm Calm 3.5 mph5.6 kmh 30.17 in1021.7 mb - 0.00 in0.0 mm 0.05 in1.3 mm
06:15 PM 34.1°F1.2°C 32.8°F0.4°C 95% 1.2 mph SSE1.9 kmh SSE 2.3 mph3.7 kmh 30.17 in1021.7 mb - 0.00 in0.0 mm 0.05 in1.3 mm
06:10 PM 34.1°F1.2°C 32.8°F0.4°C 95% 1.2 mph SSE1.9 kmh SSE 3.5 mph5.6 kmh 30.17 in1021.7 mb - 0.00 in0.0 mm 0.05 in1.3 mm
06:00 PM 34.1°F1.2°C 32.8°F0.4°C 95% 1.2 mph SE1.9 kmh SE 2.3 mph3.7 kmh 30.17 in1021.7 mb - 0.00 in0.0 mm 0.05 in1.3 mm
05:55 PM 34.1°F1.2°C 32.8°F0.4°C 95% 2.3 mph SSE3.7 kmh SSE 3.5 mph5.6 kmh 30.16 in1021.3 mb - 0.00 in0.0 mm 0.05 in1.3 mm
05:50 PM 34.2°F1.2°C 32.9°F0.5°C 95% 1.2 mph SW1.9 kmh SW 2.3 mph3.7 kmh 30.16 in1021.3 mb - 0.00 in0.0 mm 0.05 in1.3 mm
05:45 PM 34.2°F1.2°C 32.9°F0.5°C 95% 1.2 mph SW1.9 kmh SW 2.3 mph3.7 kmh 30.16 in1021.3 mb - 0.00 in0.0 mm 0.05 in1.3 mm
05:40 PM 34.3°F1.3°C 33.0°F0.6°C 95% Calm Calm -- 30.16 in1021.3 mb - 0.00 in0.0 mm 0.05 in1.3 mm
05:35 PM 34.3°F1.3°C 33.0°F0.6°C 95% 1.2 mph SW1.9 kmh SW 2.3 mph3.7 kmh 30.16 in1021.3 mb - 0.00 in0.0 mm 0.05 in1.3 mm
05:30 PM 34.3°F1.3°C 33.0°F0.6°C 95% Calm Calm -- 30.16 in1021.3 mb - 0.00 in0.0 mm 0.05 in1.3 mm
05:25 PM 34.3°F1.3°C 33.0°F0.6°C 95% Calm Calm -- 30.16 in1021.3 mb - 0.00 in0.0 mm 0.05 in1.3 mm
05:20 PM 34.3°F1.3°C 33.0°F0.6°C 95% Calm Calm 1.2 mph1.9 kmh 30.16 in1021.3 mb - 0.00 in0.0 mm 0.05 in1.3 mm
05:15 PM 34.2°F1.2°C 32.9°F0.5°C 95% 1.2 mph SW1.9 kmh SW 2.3 mph3.7 kmh 30.16 in1021.3 mb - 0.00 in0.0 mm 0.05 in1.3 mm
05:10 PM 34.2°F1.2°C 32.9°F0.5°C 95% Calm Calm 1.2 mph1.9 kmh 30.16 in1021.3 mb - 0.01 in0.3 mm 0.05 in1.3 mm
05:00 PM 34.2°F1.2°C 32.9°F0.5°C 95% 1.2 mph SW1.9 kmh SW 3.5 mph5.6 kmh 30.16 in1021.3 mb - 0.01 in0.3 mm 0.05 in1.3 mm
04:55 PM 34.2°F1.2°C 32.9°F0.5°C 95% Calm Calm 1.2 mph1.9 kmh 30.16 in1021.3 mb - 0.01 in0.3 mm 0.05 in1.3 mm
04:50 PM 34.2°F1.2°C 32.9°F0.5°C 95% 1.2 mph SW1.9 kmh SW 2.3 mph3.7 kmh 30.16 in1021.3 mb - 0.01 in0.3 mm 0.05 in1.3 mm
04:45 PM 34.2°F1.2°C 32.9°F0.5°C 95% 1.2 mph SW1.9 kmh SW 2.3 mph3.7 kmh 30.16 in1021.3 mb - 0.01 in0.3 mm 0.05 in1.3 mm
04:40 PM 34.3°F1.3°C 33.0°F0.6°C 95% 1.2 mph SW1.9 kmh SW 2.3 mph3.7 kmh 30.16 in1021.3 mb - 0.01 in0.3 mm 0.05 in1.3 mm
04:35 PM 34.3°F1.3°C 33.0°F0.6°C 95% 1.2 mph SW1.9 kmh SW 3.5 mph5.6 kmh 30.17 in1021.7 mb - 0.01 in0.3 mm 0.05 in1.3 mm
04:30 PM 34.4°F1.3°C 33.1°F0.6°C 95% 1.2 mph SW1.9 kmh SW 3.5 mph5.6 kmh 30.17 in1021.7 mb - 0.01 in0.3 mm 0.05 in1.3 mm
04:25 PM 34.4°F1.3°C 33.1°F0.6°C 95% Calm Calm 1.2 mph1.9 kmh 30.17 in1021.7 mb - 0.01 in0.3 mm 0.05 in1.3 mm
04:20 PM 34.3°F1.3°C 33.0°F0.6°C 95% 1.2 mph SW1.9 kmh SW 2.3 mph3.7 kmh 30.17 in1021.7 mb - 0.01 in0.3 mm 0.05 in1.3 mm
04:15 PM 34.3°F1.3°C 33.0°F0.6°C 95% 2.3 mph SW3.7 kmh SW 2.3 mph3.7 kmh 30.17 in1021.7 mb - 0.01 in0.3 mm 0.05 in1.3 mm
04:10 PM 34.2°F1.2°C 32.9°F0.5°C 95% 1.2 mph SW1.9 kmh SW 2.3 mph3.7 kmh 30.18 in1022.0 mb - 0.02 in0.5 mm 0.05 in1.3 mm
04:00 PM 34.2°F1.2°C 32.9°F0.5°C 95% 1.2 mph SW1.9 kmh SW 2.3 mph3.7 kmh 30.18 in1022.0 mb - 0.01 in0.3 mm 0.04 in1.0 mm
03:55 PM 34.1°F1.2°C 32.6°F0.3°C 94% 1.2 mph SW1.9 kmh SW 2.3 mph3.7 kmh 30.18 in1022.0 mb - 0.01 in0.3 mm 0.04 in1.0 mm
03:50 PM 34.0°F1.1°C 32.5°F0.3°C 94% 2.3 mph SW3.7 kmh SW 2.3 mph3.7 kmh 30.18 in1022.0 mb - 0.01 in0.3 mm 0.04 in1.0 mm
03:45 PM 34.0°F1.1°C 32.4°F0.2°C 94% 3.5 mph SW5.6 kmh SW 3.5 mph5.6 kmh 30.18 in1022.0 mb - 0.01 in0.3 mm 0.04 in1.0 mm
03:40 PM 34.0°F1.1°C 32.5°F0.3°C 94% 2.3 mph SSW3.7 kmh SSW 3.5 mph5.6 kmh 30.18 in1022.0 mb - 0.01 in0.3 mm 0.04 in1.0 mm
03:35 PM 34.0°F1.1°C 32.5°F0.3°C 94% 1.2 mph SSW1.9 kmh SSW 2.3 mph3.7 kmh 30.18 in1022.0 mb - 0.01 in0.3 mm 0.04 in1.0 mm
03:30 PM 34.0°F1.1°C 32.5°F0.3°C 94% 1.2 mph SSW1.9 kmh SSW 3.5 mph5.6 kmh 30.18 in1022.0 mb - 0.01 in0.3 mm 0.04 in1.0 mm
03:25 PM 34.0°F1.1°C 32.5°F0.3°C 94% 2.3 mph SSW3.7 kmh SSW 3.5 mph5.6 kmh 30.18 in1022.0 mb - 0.01 in0.3 mm 0.04 in1.0 mm
03:20 PM 34.0°F1.1°C 32.5°F0.3°C 94% 3.5 mph SSW5.6 kmh SSW 4.6 mph7.4 kmh 30.18 in1022.0 mb - 0.02 in0.5 mm 0.04 in1.0 mm
03:15 PM 34.0°F1.1°C 32.5°F0.3°C 94% 1.2 mph SW1.9 kmh SW 2.3 mph3.7 kmh 30.18 in1022.0 mb - 0.02 in0.5 mm 0.04 in1.0 mm
03:10 PM 33.9°F1.1°C 32.4°F0.2°C 94% 2.3 mph SW3.7 kmh SW 3.5 mph5.6 kmh 30.18 in1022.0 mb - 0.02 in0.5 mm 0.04 in1.0 mm
03:00 PM 34.0°F1.1°C 32.5°F0.3°C 94% 2.3 mph SW3.7 kmh SW 3.5 mph5.6 kmh 30.18 in1022.0 mb - 0.02 in0.5 mm 0.03 in0.8 mm
02:55 PM 33.9°F1.1°C 32.4°F0.2°C 94% 1.2 mph SW1.9 kmh SW 3.5 mph5.6 kmh 30.19 in1022.4 mb - 0.02 in0.5 mm 0.03 in0.8 mm
02:50 PM 33.8°F1.0°C 32.3°F0.2°C 94% 1.2 mph SW1.9 kmh SW 2.3 mph3.7 kmh 30.19 in1022.4 mb - 0.02 in0.5 mm 0.03 in0.8 mm
02:45 PM 33.8°F1.0°C 32.3°F0.2°C 94% 1.2 mph SW1.9 kmh SW 3.5 mph5.6 kmh 30.19 in1022.4 mb - 0.02 in0.5 mm 0.03 in0.8 mm
02:40 PM 33.8°F1.0°C 32.3°F0.2°C 94% 2.3 mph SW3.7 kmh SW 3.5 mph5.6 kmh 30.19 in1022.4 mb - 0.02 in0.5 mm 0.03 in0.8 mm
02:35 PM 33.7°F0.9°C 32.2°F0.1°C 94% Calm Calm 2.3 mph3.7 kmh 30.20 in1022.7 mb - 0.02 in0.5 mm 0.03 in0.8 mm
02:30 PM 33.6°F0.9°C 32.1°F0.1°C 94% 1.2 mph SW1.9 kmh SW 3.5 mph5.6 kmh 30.19 in1022.4 mb - 0.02 in0.5 mm 0.03 in0.8 mm
02:25 PM 33.6°F0.9°C 32.1°F0.1°C 94% 3.5 mph SW5.6 kmh SW 3.5 mph5.6 kmh 30.20 in1022.7 mb - 0.02 in0.5 mm 0.03 in0.8 mm
02:20 PM 33.5°F0.8°C 32.0°F0.0°C 94% 1.2 mph SW1.9 kmh SW 2.3 mph3.7 kmh 30.20 in1022.7 mb - 0.03 in0.8 mm 0.03 in0.8 mm
02:10 PM 33.4°F0.8°C 31.6°F-0.2°C 93% Calm Calm 3.5 mph5.6 kmh 30.20 in1022.7 mb - 0.02 in0.5 mm 0.02 in0.5 mm
02:00 PM 33.2°F0.7°C 31.4°F-0.3°C 93% Calm Calm 2.3 mph3.7 kmh 30.20 in1022.7 mb - 0.01 in0.3 mm 0.01 in0.3 mm
01:55 PM 33.2°F0.7°C 31.4°F-0.3°C 93% 1.2 mph SW1.9 kmh SW 2.3 mph3.7 kmh 30.20 in1022.7 mb - 0.01 in0.3 mm 0.01 in0.3 mm
01:50 PM 33.2°F0.7°C 31.4°F-0.3°C 93% 2.3 mph SW3.7 kmh SW 3.5 mph5.6 kmh 30.20 in1022.7 mb - 0.01 in0.3 mm 0.01 in0.3 mm
01:45 PM 33.1°F0.6°C 31.3°F-0.4°C 93% 1.2 mph SW1.9 kmh SW 3.5 mph5.6 kmh 30.21 in1023.0 mb - 0.01 in0.3 mm 0.01 in0.3 mm
01:40 PM 33.1°F0.6°C 31.0°F-0.6°C 92% 2.3 mph SW3.7 kmh SW 3.5 mph5.6 kmh 30.21 in1023.0 mb - 0.01 in0.3 mm 0.01 in0.3 mm
01:35 PM 33.2°F0.7°C 31.1°F-0.5°C 92% 2.3 mph SW3.7 kmh SW 3.5 mph5.6 kmh 30.21 in1023.0 mb - 0.01 in0.3 mm 0.01 in0.3 mm
01:30 PM 33.3°F0.7°C 31.2°F-0.4°C 92% 1.2 mph SW1.9 kmh SW 1.2 mph1.9 kmh 30.21 in1023.0 mb - 0.01 in0.3 mm 0.01 in0.3 mm
01:25 PM 33.2°F0.7°C 31.1°F-0.5°C 92% 1.2 mph SW1.9 kmh SW 2.3 mph3.7 kmh 30.21 in1023.0 mb - 0.01 in0.3 mm 0.01 in0.3 mm
01:20 PM 33.2°F0.7°C 31.1°F-0.5°C 92% 1.2 mph SW1.9 kmh SW 2.3 mph3.7 kmh 30.22 in1023.4 mb - 0.00 in0.0 mm 0.00 in0.0 mm
01:15 PM 33.2°F0.7°C 30.9°F-0.6°C 91% 1.2 mph SW1.9 kmh SW 3.5 mph5.6 kmh 30.22 in1023.4 mb - 0.00 in0.0 mm 0.00 in0.0 mm
01:10 PM 33.3°F0.7°C 31.0°F-0.6°C 91% 1.2 mph SW1.9 kmh SW 2.3 mph3.7 kmh 30.23 in1023.7 mb - 0.00 in0.0 mm 0.00 in0.0 mm
01:00 PM 33.3°F0.7°C 31.0°F-0.6°C 91% 1.2 mph SW1.9 kmh SW 2.3 mph3.7 kmh 30.23 in1023.7 mb - 0.00 in0.0 mm 0.00 in0.0 mm
12:55 PM 33.2°F0.7°C 30.9°F-0.6°C 91% 1.2 mph SW1.9 kmh SW 2.3 mph3.7 kmh 30.23 in1023.7 mb - 0.00 in0.0 mm 0.00 in0.0 mm
12:50 PM 33.2°F0.7°C 30.6°F-0.8°C 90% 1.2 mph SW1.9 kmh SW 3.5 mph5.6 kmh 30.23 in1023.7 mb - 0.00 in0.0 mm 0.00 in0.0 mm
12:45 PM 33.4°F0.8°C 30.8°F-0.7°C 90% 1.2 mph SW1.9 kmh SW 3.5 mph5.6 kmh 30.24 in1024.0 mb - 0.00 in0.0 mm 0.00 in0.0 mm
12:40 PM 33.4°F0.8°C 30.5°F-0.8°C 89% 1.2 mph SW1.9 kmh SW 2.3 mph3.7 kmh 30.24 in1024.0 mb - 0.00 in0.0 mm 0.00 in0.0 mm
12:35 PM 33.5°F0.8°C 30.6°F-0.8°C 89% 1.2 mph SW1.9 kmh SW 2.3 mph3.7 kmh 30.24 in1024.0 mb - 0.00 in0.0 mm 0.00 in0.0 mm
12:30 PM 33.7°F0.9°C 30.5°F-0.8°C 88% 1.2 mph SW1.9 kmh SW 2.3 mph3.7 kmh 30.25 in1024.4 mb - 0.00 in0.0 mm 0.00 in0.0 mm
12:25 PM 33.8°F1.0°C 30.6°F-0.8°C 88% 1.2 mph SW1.9 kmh SW 3.5 mph5.6 kmh 30.25 in1024.4 mb - 0.00 in0.0 mm 0.00 in0.0 mm
12:20 PM 33.8°F1.0°C 30.6°F-0.8°C 88% 1.2 mph SW1.9 kmh SW 2.3 mph3.7 kmh 30.25 in1024.4 mb - 0.00 in0.0 mm 0.00 in0.0 mm
12:15 PM 33.7°F0.9°C 30.5°F-0.8°C 88% 1.2 mph SW1.9 kmh SW 2.3 mph3.7 kmh 30.25 in1024.4 mb - 0.00 in0.0 mm 0.00 in0.0 mm
12:10 PM 33.8°F1.0°C 30.3°F-0.9°C 87% 1.2 mph WSW1.9 kmh WSW 3.5 mph5.6 kmh 30.25 in1024.4 mb - 0.00 in0.0 mm 0.00 in0.0 mm
12:00 PM 33.7°F0.9°C 30.0°F-1.1°C 86% 2.3 mph WSW3.7 kmh WSW 2.3 mph3.7 kmh 30.26 in1024.7 mb - 0.00 in0.0 mm 0.00 in0.0 mm
11:55 AM 33.7°F0.9°C 30.0°F-1.1°C 86% 2.3 mph W3.7 kmh W 3.5 mph5.6 kmh 30.26 in1024.7 mb - 0.00 in0.0 mm 0.00 in0.0 mm
11:50 AM 33.7°F0.9°C 30.0°F-1.1°C 86% 3.5 mph W5.6 kmh W 3.5 mph5.6 kmh 30.26 in1024.7 mb - 0.00 in0.0 mm 0.00 in0.0 mm
11:45 AM 33.7°F0.9°C 30.0°F-1.1°C 86% 1.2 mph WSW1.9 kmh WSW 2.3 mph3.7 kmh 30.26 in1024.7 mb - 0.00 in0.0 mm 0.00 in0.0 mm
11:40 AM 33.6°F0.9°C 29.6°F-1.3°C 85% 2.3 mph W3.7 kmh W 2.3 mph3.7 kmh 30.27 in1025.1 mb - 0.00 in0.0 mm 0.00 in0.0 mm
11:35 AM 33.5°F0.8°C 29.5°F-1.4°C 85% 1.2 mph SW1.9 kmh SW 3.5 mph5.6 kmh 30.27 in1025.1 mb - 0.00 in0.0 mm 0.00 in0.0 mm
11:30 AM 33.5°F0.8°C 29.2°F-1.6°C 84% 2.3 mph SW3.7 kmh SW 3.5 mph5.6 kmh 30.27 in1025.1 mb - 0.00 in0.0 mm 0.00 in0.0 mm
11:25 AM 33.7°F0.9°C 29.7°F-1.3°C 85% 2.3 mph SW3.7 kmh SW 3.5 mph5.6 kmh 30.27 in1025.1 mb - 0.00 in0.0 mm 0.00 in0.0 mm
11:20 AM 33.7°F0.9°C 29.4°F-1.4°C 84% 2.3 mph SW3.7 kmh SW 3.5 mph5.6 kmh 30.27 in1025.1 mb - 0.00 in0.0 mm 0.00 in0.0 mm
11:15 AM 33.7°F0.9°C 29.1°F-1.6°C 83% 2.3 mph SW3.7 kmh SW 3.5 mph5.6 kmh 30.27 in1025.1 mb - 0.00 in0.0 mm 0.00 in0.0 mm
11:10 AM 33.9°F1.1°C 29.3°F-1.5°C 83% 2.3 mph SW3.7 kmh SW 3.5 mph5.6 kmh 30.27 in1025.1 mb - 0.00 in0.0 mm 0.00 in0.0 mm
11:00 AM 33.9°F1.1°C 29.0°F-1.7°C 82% 3.5 mph SSW5.6 kmh SSW 4.6 mph7.4 kmh 30.28 in1025.4 mb - 0.00 in0.0 mm 0.00 in0.0 mm
10:55 AM 33.8°F1.0°C 28.6°F-1.9°C 81% 2.3 mph SW3.7 kmh SW 3.5 mph5.6 kmh 30.28 in1025.4 mb - 0.00 in0.0 mm 0.00 in0.0 mm
10:50 AM 33.9°F1.1°C 28.1°F-2.2°C 79% 3.5 mph SW5.6 kmh SW 5.8 mph9.3 kmh 30.28 in1025.4 mb - 0.00 in0.0 mm 0.00 in0.0 mm
10:45 AM 33.9°F1.1°C 28.1°F-2.2°C 79% 2.3 mph SSW3.7 kmh SSW 3.5 mph5.6 kmh 30.29 in1025.7 mb - 0.00 in0.0 mm 0.00 in0.0 mm
10:40 AM 33.9°F1.1°C 28.1°F-2.2°C 79% 2.3 mph SW3.7 kmh SW 3.5 mph5.6 kmh 30.29 in1025.7 mb - 0.00 in0.0 mm 0.00 in0.0 mm
10:35 AM 33.9°F1.1°C 27.8°F-2.3°C 78% 2.3 mph SW3.7 kmh SW 3.5 mph5.6 kmh 30.29 in1025.7 mb - 0.00 in0.0 mm 0.00 in0.0 mm
10:30 AM 34.1°F1.2°C 27.6°F-2.4°C 77% 3.5 mph SW5.6 kmh SW 4.6 mph7.4 kmh 30.29 in1025.7 mb - 0.00 in0.0 mm 0.00 in0.0 mm
10:25 AM 34.1°F1.2°C 27.6°F-2.4°C 77% 2.3 mph SW3.7 kmh SW 3.5 mph5.6 kmh 30.29 in1025.7 mb - 0.00 in0.0 mm 0.00 in0.0 mm
10:20 AM 34.0°F1.1°C 27.2°F-2.7°C 76% 2.3 mph SW3.7 kmh SW 3.5 mph5.6 kmh 30.29 in1025.7 mb - 0.00 in0.0 mm 0.00 in0.0 mm
10:15 AM 33.9°F1.1°C 27.1°F-2.7°C 76% 1.2 mph SW1.9 kmh SW 3.5 mph5.6 kmh 30.30 in1026.1 mb - 0.00 in0.0 mm 0.00 in0.0 mm
10:10 AM 33.9°F1.1°C 27.1°F-2.7°C 76% 2.3 mph SW3.7 kmh SW 3.5 mph5.6 kmh 30.30 in1026.1 mb - 0.00 in0.0 mm 0.00 in0.0 mm
10:00 AM 33.7°F0.9°C 26.9°F-2.8°C 76% 2.3 mph SW3.7 kmh SW 3.5 mph5.6 kmh 30.30 in1026.1 mb - 0.00 in0.0 mm 0.00 in0.0 mm
09:55 AM 33.6°F0.9°C 27.2°F-2.7°C 77% 1.2 mph SW1.9 kmh SW 2.3 mph3.7 kmh 30.30 in1026.1 mb - 0.00 in0.0 mm 0.00 in0.0 mm
09:50 AM 33.5°F0.8°C 27.1°F-2.7°C 77% Calm Calm 3.5 mph5.6 kmh 30.30 in1026.1 mb - 0.00 in0.0 mm 0.00 in0.0 mm
09:45 AM 33.4°F0.8°C 27.0°F-2.8°C 77% 1.2 mph SW1.9 kmh SW 2.3 mph3.7 kmh 30.30 in1026.1 mb - 0.00 in0.0 mm 0.00 in0.0 mm
09:40 AM 33.2°F0.7°C 26.8°F-2.9°C 77% 1.2 mph SW1.9 kmh SW 3.5 mph5.6 kmh 30.30 in1026.1 mb - 0.00 in0.0 mm 0.00 in0.0 mm
09:35 AM 33.1°F0.6°C 26.7°F-2.9°C 77% 1.2 mph SW1.9 kmh SW 2.3 mph3.7 kmh 30.31 in1026.4 mb - 0.00 in0.0 mm 0.00 in0.0 mm
09:30 AM 33.0°F0.6°C 26.6°F-3.0°C 77% 1.2 mph SW1.9 kmh SW 1.2 mph1.9 kmh 30.31 in1026.4 mb - 0.00 in0.0 mm 0.00 in0.0 mm
09:25 AM 32.9°F0.5°C 26.5°F-3.1°C 77% 1.2 mph SW1.9 kmh SW 2.3 mph3.7 kmh 30.31 in1026.4 mb - 0.00 in0.0 mm 0.00 in0.0 mm
09:20 AM 32.8°F0.4°C 26.4°F-3.1°C 77% 1.2 mph SW1.9 kmh SW 1.2 mph1.9 kmh 30.31 in1026.4 mb - 0.00 in0.0 mm 0.00 in0.0 mm
09:15 AM 32.6°F0.3°C 26.2°F-3.2°C 77% 1.2 mph SW1.9 kmh SW 3.5 mph5.6 kmh 30.31 in1026.4 mb - 0.00 in0.0 mm 0.00 in0.0 mm
09:10 AM 32.5°F0.3°C 26.1°F-3.3°C 77% 1.2 mph SW1.9 kmh SW 2.3 mph3.7 kmh 30.31 in1026.4 mb - 0.00 in0.0 mm 0.00 in0.0 mm
09:00 AM 32.4°F0.2°C 26.0°F-3.3°C 77% 1.2 mph SW1.9 kmh SW 3.5 mph5.6 kmh 30.31 in1026.4 mb - 0.00 in0.0 mm 0.00 in0.0 mm
08:55 AM 32.4°F0.2°C 26.0°F-3.3°C 77% 2.3 mph SW3.7 kmh SW 3.5 mph5.6 kmh 30.31 in1026.4 mb - 0.00 in0.0 mm 0.00 in0.0 mm
08:50 AM 32.3°F0.2°C 26.2°F-3.2°C 78% 1.2 mph SW1.9 kmh SW 3.5 mph5.6 kmh 30.31 in1026.4 mb - 0.00 in0.0 mm 0.00 in0.0 mm
08:45 AM 32.2°F0.1°C 26.1°F-3.3°C 78% 1.2 mph SSW1.9 kmh SSW 3.5 mph5.6 kmh 30.31 in1026.4 mb - 0.00 in0.0 mm 0.00 in0.0 mm
08:40 AM 32.1°F0.1°C 26.0°F-3.3°C 78% 1.2 mph SSW1.9 kmh SSW 2.3 mph3.7 kmh 30.31 in1026.4 mb - 0.00 in0.0 mm 0.00 in0.0 mm
08:35 AM 32.1°F0.1°C 25.7°F-3.5°C 77% Calm Calm 1.2 mph1.9 kmh 30.32 in1026.8 mb - 0.00 in0.0 mm 0.00 in0.0 mm
08:30 AM 32.0°F0.0°C 25.9°F-3.4°C 78% 1.2 mph SSW1.9 kmh SSW 3.5 mph5.6 kmh 30.31 in1026.4 mb - 0.00 in0.0 mm 0.00 in0.0 mm
08:25 AM 31.9°F-0.1°C 25.8°F-3.4°C 78% 1.2 mph SSW1.9 kmh SSW 2.3 mph3.7 kmh 30.31 in1026.4 mb - 0.00 in0.0 mm 0.00 in0.0 mm
08:20 AM 31.8°F-0.1°C 25.7°F-3.5°C 78% 1.2 mph SSW1.9 kmh SSW 2.3 mph3.7 kmh 30.32 in1026.8 mb - 0.00 in0.0 mm 0.00 in0.0 mm
08:15 AM 31.7°F-0.2°C 25.6°F-3.6°C 78% 1.2 mph SSW1.9 kmh SSW 2.3 mph3.7 kmh 30.32 in1026.8 mb - 0.00 in0.0 mm 0.00 in0.0 mm
08:10 AM 31.7°F-0.2°C 25.6°F-3.6°C 78% 2.3 mph SSW3.7 kmh SSW 3.5 mph5.6 kmh 30.32 in1026.8 mb - 0.00 in0.0 mm 0.00 in0.0 mm
08:00 AM 31.6°F-0.2°C 25.5°F-3.6°C 78% 1.2 mph S1.9 kmh S 2.3 mph3.7 kmh 30.32 in1026.8 mb - 0.00 in0.0 mm 0.00 in0.0 mm
07:55 AM 31.6°F-0.2°C 25.5°F-3.6°C 78% 2.3 mph S3.7 kmh S 2.3 mph3.7 kmh 30.31 in1026.4 mb - 0.00 in0.0 mm 0.00 in0.0 mm
07:50 AM 31.6°F-0.2°C 25.5°F-3.6°C 78% 1.2 mph S1.9 kmh S 2.3 mph3.7 kmh 30.32 in1026.8 mb - 0.00 in0.0 mm 0.00 in0.0 mm
07:45 AM 31.5°F-0.3°C 25.4°F-3.7°C 78% Calm Calm -- 30.32 in1026.8 mb - 0.00 in0.0 mm 0.00 in0.0 mm
07:40 AM 31.5°F-0.3°C 25.4°F-3.7°C 78% Calm Calm -- 30.32 in1026.8 mb - 0.00 in0.0 mm 0.00 in0.0 mm
07:35 AM 31.4°F-0.3°C 25.6°F-3.6°C 79% 1.2 mph SSE1.9 kmh SSE 1.2 mph1.9 kmh 30.32 in1026.8 mb - 0.00 in0.0 mm 0.00 in0.0 mm
07:30 AM 31.4°F-0.3°C 25.3°F-3.7°C 78% 1.2 mph SSE1.9 kmh SSE 1.2 mph1.9 kmh 30.32 in1026.8 mb - 0.00 in0.0 mm 0.00 in0.0 mm
07:25 AM 31.4°F-0.3°C 25.3°F-3.7°C 78% 1.2 mph SSE1.9 kmh SSE 2.3 mph3.7 kmh 30.32 in1026.8 mb - 0.00 in0.0 mm 0.00 in0.0 mm
07:20 AM 31.4°F-0.3°C 25.3°F-3.7°C 78% 1.2 mph SSE1.9 kmh SSE 1.2 mph1.9 kmh 30.32 in1026.8 mb - 0.00 in0.0 mm 0.00 in0.0 mm
07:15 AM 31.4°F-0.3°C 25.3°F-3.7°C 78% 1.2 mph SSE1.9 kmh SSE 1.2 mph1.9 kmh 30.32 in1026.8 mb - 0.00 in0.0 mm 0.00 in0.0 mm
07:10 AM 31.4°F-0.3°C 25.3°F-3.7°C 78% Calm Calm 2.3 mph3.7 kmh 30.32 in1026.8 mb - 0.00 in0.0 mm 0.00 in0.0 mm
07:00 AM 31.4°F-0.3°C 25.0°F-3.9°C 77% 1.2 mph SSE1.9 kmh SSE 2.3 mph3.7 kmh 30.32 in1026.8 mb - 0.00 in0.0 mm 0.00 in0.0 mm
06:55 AM 31.4°F-0.3°C 25.3°F-3.7°C 78% Calm Calm 3.5 mph5.6 kmh 30.32 in1026.8 mb - 0.00 in0.0 mm 0.00 in0.0 mm
06:50 AM 31.4°F-0.3°C 25.3°F-3.7°C 78% Calm Calm -- 30.32 in1026.8 mb - 0.00 in0.0 mm 0.00 in0.0 mm
06:45 AM 31.4°F-0.3°C 25.3°F-3.7°C 78% Calm Calm 2.3 mph3.7 kmh 30.32 in1026.8 mb - 0.00 in0.0 mm 0.00 in0.0 mm
06:40 AM 31.4°F-0.3°C 25.0°F-3.9°C 77% Calm Calm 1.2 mph1.9 kmh 30.32 in1026.8 mb - 0.00 in0.0 mm 0.00 in0.0 mm
06:35 AM 31.4°F-0.3°C 25.3°F-3.7°C 78% Calm Calm -- 30.32 in1026.8 mb - 0.00 in0.0 mm 0.00 in0.0 mm
06:30 AM 31.4°F-0.3°C 25.3°F-3.7°C 78% Calm Calm -- 30.32 in1026.8 mb - 0.00 in0.0 mm 0.00 in0.0 mm
06:25 AM 31.3°F-0.4°C 25.3°F-3.7°C 78% Calm Calm -- 30.32 in1026.8 mb - 0.00 in0.0 mm 0.00 in0.0 mm
06:20 AM 31.3°F-0.4°C 25.2°F-3.8°C 78% Calm Calm -- 30.32 in1026.8 mb - 0.00 in0.0 mm 0.00 in0.0 mm
06:15 AM 31.3°F-0.4°C 25.2°F-3.8°C 78% Calm Calm -- 30.32 in1026.8 mb - 0.00 in0.0 mm 0.00 in0.0 mm
06:10 AM 31.3°F-0.4°C 25.2°F-3.8°C 78% Calm Calm -- 30.32 in1026.8 mb - 0.00 in0.0 mm 0.00 in0.0 mm
06:00 AM 31.2°F-0.4°C 25.4°F-3.7°C 79% Calm Calm -- 30.32 in1026.8 mb - 0.00 in0.0 mm 0.00 in0.0 mm
05:55 AM 31.2°F-0.4°C 25.4°F-3.7°C 79% Calm Calm -- 30.32 in1026.8 mb - 0.00 in0.0 mm 0.00 in0.0 mm
05:50 AM 31.2°F-0.4°C 25.7°F-3.5°C 80% Calm Calm -- 30.32 in1026.8 mb - 0.00 in0.0 mm 0.00 in0.0 mm
05:45 AM 31.3°F-0.4°C 25.8°F-3.4°C 80% Calm Calm -- 30.32 in1026.8 mb - 0.00 in0.0 mm 0.00 in0.0 mm
05:40 AM 31.3°F-0.4°C 25.5°F-3.6°C 79% Calm Calm -- 30.32 in1026.8 mb - 0.00 in0.0 mm 0.00 in0.0 mm
05:35 AM 31.2°F-0.4°C 25.4°F-3.7°C 79% Calm Calm -- 30.32 in1026.8 mb - 0.00 in0.0 mm 0.00 in0.0 mm
05:30 AM 31.2°F-0.4°C 25.1°F-3.8°C 78% Calm Calm -- 30.32 in1026.8 mb - 0.00 in0.0 mm 0.00 in0.0 mm
05:25 AM 31.2°F-0.4°C 25.1°F-3.8°C 78% Calm Calm -- 30.32 in1026.8 mb - 0.00 in0.0 mm 0.00 in0.0 mm
05:20 AM 31.1°F-0.5°C 25.0°F-3.9°C 78% Calm Calm -- 30.32 in1026.8 mb - 0.00 in0.0 mm 0.00 in0.0 mm
05:15 AM 31.1°F-0.5°C 25.0°F-3.9°C 78% Calm Calm -- 30.32 in1026.8 mb - 0.00 in0.0 mm 0.00 in0.0 mm
05:10 AM 31.1°F-0.5°C 25.3°F-3.7°C 79% Calm Calm -- 30.32 in1026.8 mb - 0.00 in0.0 mm 0.00 in0.0 mm
05:00 AM 31.2°F-0.4°C 25.4°F-3.7°C 79% Calm Calm -- 30.32 in1026.8 mb - 0.00 in0.0 mm 0.00 in0.0 mm
04:55 AM 31.2°F-0.4°C 25.4°F-3.7°C 79% Calm Calm -- 30.32 in1026.8 mb - 0.00 in0.0 mm 0.00 in0.0 mm
04:50 AM 31.3°F-0.4°C 25.2°F-3.8°C 78% Calm Calm -- 30.32 in1026.8 mb - 0.00 in0.0 mm 0.00 in0.0 mm
04:45 AM 31.4°F-0.3°C 25.0°F-3.9°C 77% Calm Calm -- 30.32 in1026.8 mb - 0.00 in0.0 mm 0.00 in0.0 mm
04:40 AM 31.3°F-0.4°C 24.9°F-3.9°C 77% Calm Calm -- 30.32 in1026.8 mb - 0.00 in0.0 mm 0.00 in0.0 mm
04:35 AM 31.3°F-0.4°C 24.9°F-3.9°C 77% 1.2 mph SSE1.9 kmh SSE 2.3 mph3.7 kmh 30.32 in1026.8 mb - 0.00 in0.0 mm 0.00 in0.0 mm
04:30 AM 31.3°F-0.4°C 25.2°F-3.8°C 78% Calm Calm -- 30.32 in1026.8 mb - 0.00 in0.0 mm 0.00 in0.0 mm
04:25 AM 31.3°F-0.4°C 25.2°F-3.8°C 78% Calm Calm -- 30.32 in1026.8 mb - 0.00 in0.0 mm 0.00 in0.0 mm
04:20 AM 31.3°F-0.4°C 24.9°F-3.9°C 77% Calm Calm -- 30.32 in1026.8 mb - 0.00 in0.0 mm 0.00 in0.0 mm
04:15 AM 31.3°F-0.4°C 24.9°F-3.9°C 77% Calm Calm -- 30.32 in1026.8 mb - 0.00 in0.0 mm 0.00 in0.0 mm
04:10 AM 31.3°F-0.4°C 24.9°F-3.9°C 77% Calm Calm -- 30.32 in1026.8 mb - 0.00 in0.0 mm 0.00 in0.0 mm
04:00 AM 31.1°F-0.5°C 24.4°F-4.2°C 76% Calm Calm -- 30.33 in1027.1 mb - 0.00 in0.0 mm 0.00 in0.0 mm
03:55 AM 31.1°F-0.5°C 24.7°F-4.1°C 77% Calm Calm -- 30.33 in1027.1 mb - 0.00 in0.0 mm 0.00 in0.0 mm
03:50 AM 31.1°F-0.5°C 24.4°F-4.2°C 76% Calm Calm -- 30.33 in1027.1 mb - 0.00 in0.0 mm 0.00 in0.0 mm
03:45 AM 31.1°F-0.5°C 24.4°F-4.2°C 76% Calm Calm -- 30.33 in1027.1 mb - 0.00 in0.0 mm 0.00 in0.0 mm
03:40 AM 31.1°F-0.5°C 24.4°F-4.2°C 76% Calm Calm -- 30.33 in1027.1 mb - 0.00 in0.0 mm 0.00 in0.0 mm
03:35 AM 31.2°F-0.4°C 24.5°F-4.2°C 76% Calm Calm -- 30.33 in1027.1 mb - 0.00 in0.0 mm 0.00 in0.0 mm
03:30 AM 31.2°F-0.4°C 24.8°F-4.0°C 77% Calm Calm -- 30.32 in1026.8 mb - 0.00 in0.0 mm 0.00 in0.0 mm
03:25 AM 31.2°F-0.4°C 24.8°F-4.0°C 77% Calm Calm -- 30.32 in1026.8 mb - 0.00 in0.0 mm 0.00 in0.0 mm
03:20 AM 31.2°F-0.4°C 24.8°F-4.0°C 77% Calm Calm -- 30.32 in1026.8 mb - 0.00 in0.0 mm 0.00 in0.0 mm
03:15 AM 31.2°F-0.4°C 24.5°F-4.2°C 76% Calm Calm -- 30.32 in1026.8 mb - 0.00 in0.0 mm 0.00 in0.0 mm
03:10 AM 31.3°F-0.4°C 24.6°F-4.1°C 76% Calm Calm -- 30.32 in1026.8 mb - 0.00 in0.0 mm 0.00 in0.0 mm
03:00 AM 31.4°F-0.3°C 24.4°F-4.2°C 75% Calm Calm -- 30.32 in1026.8 mb - 0.00 in0.0 mm 0.00 in0.0 mm
02:55 AM 31.4°F-0.3°C 24.4°F-4.2°C 75% Calm Calm -- 30.32 in1026.8 mb - 0.00 in0.0 mm 0.00 in0.0 mm
02:50 AM 31.4°F-0.3°C 24.4°F-4.2°C 75% Calm Calm -- 30.32 in1026.8 mb - 0.00 in0.0 mm 0.00 in0.0 mm
02:45 AM 31.4°F-0.3°C 24.4°F-4.2°C 75% Calm Calm -- 30.33 in1027.1 mb - 0.00 in0.0 mm 0.00 in0.0 mm
02:40 AM 31.4°F-0.3°C 24.4°F-4.2°C 75% Calm Calm -- 30.33 in1027.1 mb - 0.00 in0.0 mm 0.00 in0.0 mm
02:35 AM 31.4°F-0.3°C 24.1°F-4.4°C 74% Calm Calm -- 30.33 in1027.1 mb - 0.00 in0.0 mm 0.00 in0.0 mm
02:30 AM 31.4°F-0.3°C 24.1°F-4.4°C 74% Calm Calm -- 30.34 in1027.4 mb - 0.00 in0.0 mm 0.00 in0.0 mm
02:25 AM 31.5°F-0.3°C 24.2°F-4.3°C 74% Calm Calm -- 30.33 in1027.1 mb - 0.00 in0.0 mm 0.00 in0.0 mm
02:20 AM 31.5°F-0.3°C 23.8°F-4.6°C 73% Calm Calm -- 30.33 in1027.1 mb - 0.00 in0.0 mm 0.00 in0.0 mm
02:15 AM 31.6°F-0.2°C 23.9°F-4.5°C 73% Calm Calm -- 30.33 in1027.1 mb - 0.00 in0.0 mm 0.00 in0.0 mm
02:10 AM 31.7°F-0.2°C 23.7°F-4.6°C 72% Calm Calm -- 30.33 in1027.1 mb - 0.00 in0.0 mm 0.00 in0.0 mm
02:00 AM 31.8°F-0.1°C 23.8°F-4.6°C 72% Calm Calm -- 30.33 in1027.1 mb - 0.00 in0.0 mm 0.00 in0.0 mm
01:55 AM 31.8°F-0.1°C 23.8°F-4.6°C 72% Calm Calm -- 30.32 in1026.8 mb - 0.00 in0.0 mm 0.00 in0.0 mm
01:50 AM 31.8°F-0.1°C 23.8°F-4.6°C 72% Calm Calm -- 30.32 in1026.8 mb - 0.00 in0.0 mm 0.00 in0.0 mm
01:45 AM 31.8°F-0.1°C 23.8°F-4.6°C 72% Calm Calm -- 30.32 in1026.8 mb - 0.00 in0.0 mm 0.00 in0.0 mm
01:40 AM 31.9°F-0.1°C 23.9°F-4.5°C 72% Calm Calm -- 30.33 in1027.1 mb - 0.00 in0.0 mm 0.00 in0.0 mm
01:35 AM 31.9°F-0.1°C 23.9°F-4.5°C 72% Calm Calm -- 30.33 in1027.1 mb - 0.00 in0.0 mm 0.00 in0.0 mm
01:30 AM 31.9°F-0.1°C 23.6°F-4.7°C 71% Calm Calm -- 30.33 in1027.1 mb - 0.00 in0.0 mm 0.00 in0.0 mm
01:25 AM 31.9°F-0.1°C 23.9°F-4.5°C 72% Calm Calm -- 30.33 in1027.1 mb - 0.00 in0.0 mm 0.00 in0.0 mm
01:15 AM 31.8°F-0.1°C 23.8°F-4.6°C 72% 1.2 mph SSE1.9 kmh SSE 2.3 mph3.7 kmh 30.33 in1027.1 mb - 0.00 in0.0 mm 0.00 in0.0 mm
01:10 AM 31.8°F-0.1°C 23.8°F-4.6°C 72% Calm Calm -- 30.33 in1027.1 mb - 0.00 in0.0 mm 0.00 in0.0 mm
01:00 AM 31.9°F-0.1°C 23.6°F-4.7°C 71% Calm Calm -- 30.33 in1027.1 mb - 0.00 in0.0 mm 0.00 in0.0 mm
12:55 AM 32.0°F0.0°C 23.7°F-4.6°C 71% Calm Calm -- 30.33 in1027.1 mb - 0.00 in0.0 mm 0.00 in0.0 mm
12:50 AM 32.0°F0.0°C 23.3°F-4.8°C 70% Calm Calm -- 30.34 in1027.4 mb - 0.00 in0.0 mm 0.00 in0.0 mm
12:45 AM 32.0°F0.0°C 23.3°F-4.8°C 70% Calm Calm -- 30.34 in1027.4 mb - 0.00 in0.0 mm 0.00 in0.0 mm
12:40 AM 32.1°F0.1°C 23.7°F-4.6°C 71% 2.3 mph SSE3.7 kmh SSE 3.5 mph5.6 kmh 30.33 in1027.1 mb - 0.00 in0.0 mm 0.00 in0.0 mm
12:35 AM 32.1°F0.1°C 23.8°F-4.6°C 71% Calm Calm 1.2 mph1.9 kmh 30.34 in1027.4 mb - 0.00 in0.0 mm 0.00 in0.0 mm
12:30 AM 32.2°F0.1°C 23.5°F-4.7°C 70% 1.2 mph SSE1.9 kmh SSE 2.3 mph3.7 kmh 30.34 in1027.4 mb - 0.00 in0.0 mm 0.00 in0.0 mm
12:25 AM 32.2°F0.1°C 23.5°F-4.7°C 70% Calm Calm -- 30.34 in1027.4 mb - 0.00 in0.0 mm 0.00 in0.0 mm
12:20 AM 32.2°F0.1°C 23.2°F-4.9°C 69% 1.2 mph SSE1.9 kmh SSE 2.3 mph3.7 kmh 30.33 in1027.1 mb - 0.00 in0.0 mm 0.00 in0.0 mm
12:15 AM 32.3°F0.2°C 23.3°F-4.8°C 69% 2.3 mph SSE3.7 kmh SSE 3.5 mph5.6 kmh 30.33 in1027.1 mb - 0.00 in0.0 mm 0.00 in0.0 mm
12:10 AM 32.3°F0.2°C 23.3°F-4.8°C 69% 1.2 mph E1.9 kmh E 3.5 mph5.6 kmh 30.33 in1027.1 mb - 0.00 in0.0 mm 0.00 in0.0 mm
12:00 AM 32.3°F0.2°C 23.3°F-4.8°C 69% 1.2 mph E1.9 kmh E 2.3 mph3.7 kmh 30.33 in1027.1 mb - 0.00 in0.0 mm 0.00 in0.0 mm